Time;durP1;ratioP1;P1;durP2;ratioP2;P2;SDS_P1;SDS_P2;PMS_P1;PMS_P2;Temp;Humidity;BMP_temperature;BMP_pressure;BME280_temperature;BME280_humidity;BME280_pressure;Samples;Min_cycle;Max_cycle;Signal;HPM_P1;HPM_P2
2023/08/21 00:01:56;;;;;;;4.35;1.17;;;;;;;;;;5017236;28;20273;-85
2023/08/21 00:04:22;;;;;;;4.18;1.00;;;;;;;;;;5020557;28;20397;-84
2023/08/21 00:06:47;;;;;;;5.75;1.27;;;;;;;;;;5036109;28;20053;-86
2023/08/21 00:09:12;;;;;;;3.20;1.00;;;;;;;;;;5023354;28;20634;-86
2023/08/21 00:11:39;;;;;;;3.90;1.40;;;;;;;;;;5038922;28;20032;-84
2023/08/21 00:14:05;;;;;;;5.68;1.42;;;;;;;;;;5028039;28;20085;-84
2023/08/21 00:16:30;;;;;;;4.90;1.40;;;;;;;;;;5024481;28;20030;-86
2023/08/21 00:18:56;;;;;;;4.15;1.23;;;;;;;;;;5024044;28;21491;-87
2023/08/21 00:21:21;;;;;;;4.45;1.10;;;;;;;;;;5022938;28;20272;-87
2023/08/21 00:23:47;;;;;;;3.88;1.20;;;;;;;;;;5010809;28;20026;-84
2023/08/21 00:26:12;;;;;;;3.35;1.40;;;;;;;;;;5007189;28;20033;-84
2023/08/21 00:28:38;;;;;;;4.20;1.50;;;;;;;;;;5008910;28;20117;-84
2023/08/21 00:31:04;;;;;;;3.72;1.42;;;;;;;;;;5006007;28;20125;-84
2023/08/21 00:33:31;;;;;;;4.63;1.60;;;;;;;;;;5026125;28;20082;-84
2023/08/21 00:35:57;;;;;;;5.88;1.60;;;;;;;;;;5027366;28;20064;-87
2023/08/21 00:38:23;;;;;;;6.00;1.38;;;;;;;;;;5028333;28;20026;-84
2023/08/21 00:40:48;;;;;;;4.80;1.50;;;;;;;;;;5026899;28;20032;-86
2023/08/21 00:43:14;;;;;;;3.67;1.17;;;;;;;;;;5023236;28;20056;-86
2023/08/21 00:45:42;;;;;;;3.75;1.40;;;;;;;;;;5023108;28;20034;-87
2023/08/21 00:48:09;;;;;;;4.18;2.05;;;;;;;;;;5023743;28;20036;-87
2023/08/21 00:50:35;;;;;;;4.32;1.63;;;;;;;;;;5021966;28;20030;-87
2023/08/21 00:53:01;;;;;;;4.85;1.30;;;;;;;;;;5025038;28;20045;-87
2023/08/21 00:55:27;;;;;;;3.75;1.30;;;;;;;;;;5022118;28;20641;-84
2023/08/21 00:57:53;;;;;;;3.17;1.50;;;;;;;;;;5028368;28;20033;-87
2023/08/21 01:00:19;;;;;;;3.30;1.40;;;;;;;;;;5042665;28;20037;-84
2023/08/21 01:02:45;;;;;;;3.80;1.58;;;;;;;;;;5023888;28;20029;-86
2023/08/21 01:05:10;;;;;;;4.03;1.83;;;;;;;;;;5020260;28;20037;-88
2023/08/21 01:07:42;;;;;;;3.47;1.50;;;;;;;;;;5023240;28;20026;-84
2023/08/21 01:10:15;;;;;;;3.42;1.60;;;;;;;;;;5041052;28;20034;-88
2023/08/21 01:12:55;;;;;;;5.00;1.80;;;;;;;;;;5036443;28;20042;-87
2023/08/21 01:15:22;;;;;;;4.28;1.48;;;;;;;;;;5020112;28;20057;-88
2023/08/21 01:17:49;;;;;;;3.05;1.60;;;;;;;;;;5027076;28;20030;-86
2023/08/21 01:20:14;;;;;;;3.50;1.70;;;;;;;;;;5021947;28;20113;-88
2023/08/21 01:22:41;;;;;;;5.30;1.67;;;;;;;;;;5022392;28;20045;-85
2023/08/21 01:25:09;;;;;;;3.75;1.77;;;;;;;;;;5020063;28;20049;-87
2023/08/21 01:27:35;;;;;;;3.38;1.70;;;;;;;;;;5026068;28;20543;-88
2023/08/21 01:30:03;;;;;;;4.70;1.90;;;;;;;;;;5024079;28;20036;-87
2023/08/21 01:32:52;;;;;;;5.63;2.00;;;;;;;;;;5012506;28;20109;-82
2023/08/21 01:35:18;;;;;;;4.72;1.88;;;;;;;;;;5008062;28;20053;-82
2023/08/21 01:37:44;;;;;;;4.25;2.13;;;;;;;;;;5007151;28;20185;-82
2023/08/21 01:40:10;;;;;;;4.63;2.03;;;;;;;;;;5005449;28;20451;-84
2023/08/21 01:42:35;;;;;;;5.47;1.73;;;;;;;;;;5015615;28;20021;-81
2023/08/21 01:45:01;;;;;;;5.15;1.95;;;;;;;;;;5013996;28;20056;-83
2023/08/21 01:47:26;;;;;;;4.97;2.03;;;;;;;;;;5008351;28;20401;-84
2023/08/21 01:49:52;;;;;;;6.07;2.30;;;;;;;;;;5006932;28;20124;-84
2023/08/21 01:52:18;;;;;;;4.43;2.10;;;;;;;;;;5024458;28;20056;-83
2023/08/21 01:54:43;;;;;;;4.68;2.03;;;;;;;;;;5003603;28;20551;-81
2023/08/21 01:57:09;;;;;;;4.82;1.63;;;;;;;;;;5002434;28;20029;-82
2023/08/21 01:59:34;;;;;;;4.38;1.90;;;;;;;;;;5007823;28;20083;-81
2023/08/21 02:02:00;;;;;;;5.50;1.85;;;;;;;;;;5005240;28;20486;-83
2023/08/21 02:04:25;;;;;;;4.90;2.30;;;;;;;;;;5003850;28;20113;-82
2023/08/21 02:06:50;;;;;;;5.53;2.20;;;;;;;;;;5008881;28;20456;-81
2023/08/21 02:09:16;;;;;;;4.03;2.15;;;;;;;;;;5002327;28;20022;-83
2023/08/21 02:11:41;;;;;;;4.38;2.28;;;;;;;;;;5004018;28;20739;-82
2023/08/21 02:14:07;;;;;;;3.08;1.70;;;;;;;;;;5006196;28;20030;-81
2023/08/21 02:16:32;;;;;;;4.95;2.00;;;;;;;;;;5001828;28;20037;-82
2023/08/21 02:18:58;;;;;;;4.05;1.67;;;;;;;;;;5013021;28;20052;-84
2023/08/21 02:21:23;;;;;;;5.00;2.00;;;;;;;;;;5007900;28;20021;-82
2023/08/21 02:23:49;;;;;;;5.82;2.28;;;;;;;;;;5004774;28;20458;-83
2023/08/21 02:26:14;;;;;;;4.90;1.95;;;;;;;;;;5025772;28;20025;-81
2023/08/21 02:28:39;;;;;;;3.95;1.90;;;;;;;;;;5007853;28;20145;-81
2023/08/21 02:31:08;;;;;;;3.53;1.60;;;;;;;;;;5005978;28;20030;-81
2023/08/21 02:33:34;;;;;;;4.95;1.85;;;;;;;;;;5006736;28;20030;-82
2023/08/21 02:35:59;;;;;;;4.28;1.90;;;;;;;;;;5007014;28;20474;-81
2023/08/21 02:38:25;;;;;;;6.45;3.38;;;;;;;;;;5009286;28;20029;-81
2023/08/21 02:40:50;;;;;;;4.57;2.20;;;;;;;;;;5003991;28;20026;-82
2023/08/21 02:43:16;;;;;;;3.35;1.60;;;;;;;;;;5019464;28;20090;-86
2023/08/21 02:45:42;;;;;;;4.30;1.92;;;;;;;;;;5027531;28;20026;-84
2023/08/21 02:48:07;;;;;;;5.07;2.33;;;;;;;;;;5028541;28;20010;-87
2023/08/21 02:50:33;;;;;;;4.78;2.35;;;;;;;;;;5026569;28;20026;-86
2023/08/21 02:52:58;;;;;;;5.70;2.53;;;;;;;;;;5026370;28;20029;-86
2023/08/21 02:55:24;;;;;;;4.70;2.22;;;;;;;;;;5020965;28;20026;-84
2023/08/21 02:57:49;;;;;;;2.97;1.70;;;;;;;;;;5025787;28;20030;-86
2023/08/21 03:00:14;;;;;;;3.35;1.80;;;;;;;;;;5037358;28;20042;-86
2023/08/21 03:02:43;;;;;;;3.85;1.75;;;;;;;;;;5022672;28;20089;-84
2023/08/21 03:05:09;;;;;;;6.13;1.92;;;;;;;;;;5021542;28;20684;-86
2023/08/21 03:07:35;;;;;;;3.33;1.77;;;;;;;;;;5026530;28;20085;-87
2023/08/21 03:10:01;;;;;;;4.80;1.80;;;;;;;;;;5021858;28;20025;-85
2023/08/21 03:12:27;;;;;;;6.60;2.20;;;;;;;;;;5025020;28;20040;-85
2023/08/21 03:14:52;;;;;;;7.10;2.00;;;;;;;;;;5025845;28;20059;-86
2023/08/21 03:17:18;;;;;;;4.13;2.53;;;;;;;;;;5022977;28;20006;-86
2023/08/21 03:19:43;;;;;;;5.88;2.00;;;;;;;;;;5025696;28;20059;-82
2023/08/21 03:22:09;;;;;;;4.88;2.25;;;;;;;;;;5024857;28;20030;-87
2023/08/21 03:24:34;;;;;;;3.40;1.80;;;;;;;;;;5026234;28;20018;-84
2023/08/21 03:26:59;;;;;;;3.65;1.83;;;;;;;;;;5028179;28;20022;-87
2023/08/21 03:29:25;;;;;;;5.53;1.90;;;;;;;;;;5034980;28;20060;-85
2023/08/21 03:31:56;;;;;;;4.00;2.05;;;;;;;;;;5027471;28;20030;-86
2023/08/21 03:34:22;;;;;;;5.28;2.40;;;;;;;;;;5029442;28;20030;-83
2023/08/21 03:36:47;;;;;;;6.53;2.20;;;;;;;;;;5046989;28;20865;-84
2023/08/21 03:39:13;;;;;;;3.97;2.08;;;;;;;;;;5028573;28;20009;-84
2023/08/21 03:41:38;;;;;;;4.50;2.15;;;;;;;;;;5029891;28;20026;-84
2023/08/21 03:44:04;;;;;;;3.33;1.98;;;;;;;;;;5032073;28;20010;-82
2023/08/21 03:46:29;;;;;;;4.13;1.90;;;;;;;;;;5030517;28;20025;-84
2023/08/21 03:48:55;;;;;;;3.97;2.35;;;;;;;;;;5031379;28;20029;-82
2023/08/21 03:51:20;;;;;;;3.92;2.42;;;;;;;;;;5029498;28;20029;-83
2023/08/21 03:53:45;;;;;;;3.53;2.03;;;;;;;;;;5006447;28;20068;-84
2023/08/21 03:56:11;;;;;;;4.18;1.90;;;;;;;;;;5011323;28;20053;-82
2023/08/21 03:58:36;;;;;;;5.00;2.03;;;;;;;;;;5007696;28;20112;-81
2023/08/21 04:01:02;;;;;;;4.22;2.15;;;;;;;;;;5006617;28;20490;-83
2023/08/21 04:03:27;;;;;;;5.57;2.40;;;;;;;;;;5018294;28;20093;-86
2023/08/21 04:05:54;;;;;;;5.22;2.17;;;;;;;;;;5026607;28;20029;-84
2023/08/21 04:08:19;;;;;;;5.82;2.53;;;;;;;;;;5028457;28;20036;-87
2023/08/21 04:10:45;;;;;;;4.32;2.25;;;;;;;;;;5026827;28;20054;-86
2023/08/21 04:13:10;;;;;;;3.13;2.00;;;;;;;;;;5026512;28;20155;-86
2023/08/21 04:15:36;;;;;;;4.95;2.28;;;;;;;;;;5030258;28;20054;-84
2023/08/21 04:18:01;;;;;;;5.68;2.30;;;;;;;;;;5034374;28;20093;-86
2023/08/21 04:20:27;;;;;;;5.70;2.35;;;;;;;;;;5031760;28;20034;-86
2023/08/21 04:22:52;;;;;;;5.38;2.33;;;;;;;;;;5032450;28;20098;-87
2023/08/21 04:25:17;;;;;;;5.80;2.35;;;;;;;;;;5029397;28;20040;-87
2023/08/21 04:27:43;;;;;;;4.70;2.47;;;;;;;;;;5031118;28;20110;-85
2023/08/21 04:30:09;;;;;;;3.13;2.00;;;;;;;;;;5028310;28;20033;-87
2023/08/21 04:32:35;;;;;;;5.22;2.20;;;;;;;;;;5029895;28;20018;-84
2023/08/21 04:35:00;;;;;;;4.72;2.13;;;;;;;;;;5040029;28;20123;-87
2023/08/21 04:37:26;;;;;;;4.43;2.40;;;;;;;;;;5037076;28;20064;-86
2023/08/21 04:39:55;;;;;;;4.35;2.38;;;;;;;;;;5043243;28;20030;-86
2023/08/21 04:42:21;;;;;;;5.15;2.60;;;;;;;;;;5035280;28;20030;-87
2023/08/21 04:44:46;;;;;;;3.95;2.20;;;;;;;;;;5044899;28;20405;-86
2023/08/21 04:47:26;;;;;;;5.38;2.40;;;;;;;;;;5030751;28;20025;-87
2023/08/21 04:49:52;;;;;;;4.63;2.25;;;;;;;;;;5029870;28;20022;-87
2023/08/21 04:52:22;;;;;;;4.20;2.10;;;;;;;;;;5027327;28;20085;-85
2023/08/21 04:54:50;;;;;;;4.35;2.45;;;;;;;;;;5026938;28;20026;-87
2023/08/21 04:57:17;;;;;;;4.80;2.50;;;;;;;;;;5039496;28;20060;-87
2023/08/21 04:59:43;;;;;;;6.40;2.40;;;;;;;;;;5022868;28;20090;-86
2023/08/21 05:02:09;;;;;;;5.07;2.30;;;;;;;;;;5019428;28;20145;-84
2023/08/21 05:04:36;;;;;;;4.75;2.47;;;;;;;;;;5012221;28;20041;-84
2023/08/21 05:07:01;;;;;;;5.97;2.40;;;;;;;;;;5010846;28;20025;-84
2023/08/21 05:09:27;;;;;;;5.00;2.83;;;;;;;;;;5008056;28;20017;-84
2023/08/21 05:11:52;;;;;;;3.90;2.30;;;;;;;;;;5011560;28;20034;-85
2023/08/21 05:14:19;;;;;;;4.05;2.35;;;;;;;;;;5027195;28;20053;-87
2023/08/21 05:16:45;;;;;;;4.35;2.35;;;;;;;;;;5027486;28;20026;-86
2023/08/21 05:19:10;;;;;;;4.57;2.38;;;;;;;;;;5030382;28;20037;-87
2023/08/21 05:21:36;;;;;;;5.28;2.15;;;;;;;;;;5028313;28;20034;-87
2023/08/21 05:24:01;;;;;;;4.68;2.38;;;;;;;;;;5028426;28;20026;-86
2023/08/21 05:26:27;;;;;;;4.80;2.20;;;;;;;;;;5018619;28;20114;-87
2023/08/21 05:28:52;;;;;;;4.25;2.10;;;;;;;;;;5020969;28;20030;-86
2023/08/21 05:31:18;;;;;;;5.28;2.20;;;;;;;;;;5038163;28;20030;-86
2023/08/21 05:33:43;;;;;;;4.32;2.88;;;;;;;;;;5019148;28;20064;-87
2023/08/21 05:36:09;;;;;;;3.65;1.77;;;;;;;;;;5019446;28;20033;-87
2023/08/21 05:38:34;;;;;;;4.90;2.13;;;;;;;;;;5020334;28;20764;-87
2023/08/21 05:41:00;;;;;;;4.75;2.40;;;;;;;;;;5019406;28;20022;-87
2023/08/21 05:43:26;;;;;;;6.75;2.67;;;;;;;;;;5021534;28;20018;-87
2023/08/21 05:45:51;;;;;;;6.22;2.85;;;;;;;;;;5019446;28;20037;-86
2023/08/21 05:48:17;;;;;;;7.47;2.80;;;;;;;;;;5038509;28;20033;-87
2023/08/21 05:50:42;;;;;;;6.60;3.20;;;;;;;;;;5019375;28;20180;-86
2023/08/21 05:53:08;;;;;;;7.78;2.50;;;;;;;;;;5018810;28;20161;-87
2023/08/21 05:55:34;;;;;;;5.20;2.10;;;;;;;;;;5018635;28;20034;-87
2023/08/21 05:57:59;;;;;;;5.43;2.50;;;;;;;;;;5012643;28;20481;-85
2023/08/21 06:00:24;;;;;;;5.75;2.33;;;;;;;;;;5024268;28;20113;-87
2023/08/21 06:02:50;;;;;;;4.82;2.10;;;;;;;;;;5027324;28;20022;-86
2023/08/21 06:05:15;;;;;;;4.43;2.17;;;;;;;;;;5035460;28;20029;-88
2023/08/21 06:07:41;;;;;;;4.78;2.33;;;;;;;;;;5023262;28;20025;-88
2023/08/21 06:10:14;;;;;;;7.03;2.10;;;;;;;;;;5021431;28;20061;-88
2023/08/21 06:12:41;;;;;;;5.25;2.17;;;;;;;;;;5013655;28;20030;-81
2023/08/21 06:15:11;;;;;;;5.70;2.30;;;;;;;;;;5009574;28;20025;-82
2023/08/21 06:17:37;;;;;;;5.75;2.15;;;;;;;;;;5010725;28;20021;-81
2023/08/21 06:20:05;;;;;;;6.05;1.90;;;;;;;;;;5008999;28;20117;-83
2023/08/21 06:22:32;;;;;;;5.78;2.15;;;;;;;;;;5007691;28;20021;-84
2023/08/21 06:24:57;;;;;;;6.60;2.10;;;;;;;;;;5006136;28;20120;-84
2023/08/21 06:27:23;;;;;;;6.97;2.28;;;;;;;;;;5009745;28;20561;-84
2023/08/21 06:29:48;;;;;;;6.93;2.78;;;;;;;;;;5006237;28;20056;-84
2023/08/21 06:32:14;;;;;;;4.18;1.88;;;;;;;;;;5000423;28;20072;-84
2023/08/21 06:34:39;;;;;;;4.43;2.00;;;;;;;;;;5005187;28;20231;-84
2023/08/21 06:37:04;;;;;;;9.32;3.30;;;;;;;;;;5000049;28;20116;-83
2023/08/21 06:39:30;;;;;;;5.50;2.30;;;;;;;;;;5008890;28;20025;-83
2023/08/21 06:41:56;;;;;;;8.52;3.25;;;;;;;;;;5004977;28;20038;-83
2023/08/21 06:44:21;;;;;;;7.13;3.05;;;;;;;;;;5006082;28;20022;-83
2023/08/21 06:46:47;;;;;;;8.55;3.20;;;;;;;;;;5008554;28;20026;-83
2023/08/21 06:49:12;;;;;;;4.50;2.58;;;;;;;;;;5009392;28;20121;-83
2023/08/21 06:51:38;;;;;;;6.22;2.70;;;;;;;;;;5005933;28;20065;-83
2023/08/21 06:54:03;;;;;;;8.55;3.50;;;;;;;;;;5000836;28;20061;-83
2023/08/21 06:56:29;;;;;;;8.30;3.10;;;;;;;;;;5009029;28;20025;-83
2023/08/21 06:58:55;;;;;;;6.30;2.80;;;;;;;;;;5008539;28;20050;-83
2023/08/21 07:01:21;;;;;;;8.82;2.85;;;;;;;;;;5000931;28;20041;-83
2023/08/21 07:03:47;;;;;;;7.50;2.90;;;;;;;;;;5007341;28;20030;-83
2023/08/21 07:06:12;;;;;;;6.88;2.50;;;;;;;;;;5009917;28;20025;-83
2023/08/21 07:08:40;;;;;;;5.28;2.20;;;;;;;;;;5006567;28;20030;-83
2023/08/21 07:11:07;;;;;;;8.80;2.72;;;;;;;;;;5006665;28;20026;-82
2023/08/21 07:13:33;;;;;;;9.60;3.00;;;;;;;;;;5010655;28;20053;-82
2023/08/21 07:16:02;;;;;;;9.15;2.47;;;;;;;;;;5010848;28;20080;-82
2023/08/21 07:18:27;;;;;;;6.22;2.20;;;;;;;;;;5010699;28;20061;-82
2023/08/21 07:20:53;;;;;;;7.28;1.73;;;;;;;;;;5011261;28;20084;-82
2023/08/21 07:23:18;;;;;;;6.28;1.98;;;;;;;;;;5004378;28;20037;-81
2023/08/21 07:25:44;;;;;;;7.43;1.48;;;;;;;;;;5010202;28;20030;-83
2023/08/21 07:28:10;;;;;;;6.45;1.10;;;;;;;;;;5010722;28;20034;-83
2023/08/21 07:30:38;;;;;;;5.65;1.30;;;;;;;;;;5002421;28;20025;-83
2023/08/21 07:33:05;;;;;;;3.67;1.00;;;;;;;;;;5021305;28;20026;-83
2023/08/21 07:35:30;;;;;;;4.22;1.25;;;;;;;;;;5028284;28;20081;-82
2023/08/21 07:37:56;;;;;;;4.85;1.13;;;;;;;;;;5039128;28;20021;-83
2023/08/21 07:40:21;;;;;;;4.53;1.02;;;;;;;;;;5034202;28;20018;-83
2023/08/21 07:42:47;;;;;;;5.72;1.10;;;;;;;;;;5037507;28;20081;-83
2023/08/21 07:45:12;;;;;;;5.88;1.30;;;;;;;;;;5038523;28;20042;-83
2023/08/21 07:47:37;;;;;;;5.63;1.20;;;;;;;;;;5038037;28;20061;-83
2023/08/21 07:50:04;;;;;;;3.22;1.27;;;;;;;;;;5036618;28;20025;-83
2023/08/21 07:52:29;;;;;;;7.82;1.33;;;;;;;;;;5034943;28;20018;-83
2023/08/21 07:54:54;;;;;;;4.55;1.27;;;;;;;;;;5032563;28;20582;-82
2023/08/21 07:57:20;;;;;;;5.65;1.23;;;;;;;;;;5034578;28;20053;-82
2023/08/21 07:59:45;;;;;;;4.35;1.00;;;;;;;;;;5027508;28;20053;-83
2023/08/21 08:02:14;;;;;;;3.33;0.93;;;;;;;;;;5033328;28;20022;-83
2023/08/21 08:04:40;;;;;;;4.22;1.05;;;;;;;;;;5033139;28;20013;-82
2023/08/21 08:07:05;;;;;;;5.22;1.20;;;;;;;;;;5037338;28;20021;-82
2023/08/21 08:09:31;;;;;;;5.32;0.98;;;;;;;;;;5038953;28;20029;-83
2023/08/21 08:11:56;;;;;;;5.32;1.15;;;;;;;;;;5052035;28;20040;-82
2023/08/21 08:14:21;;;;;;;4.50;0.88;;;;;;;;;;5051698;28;20050;-83
2023/08/21 08:16:47;;;;;;;4.60;0.80;;;;;;;;;;5035540;28;20010;-83
2023/08/21 08:19:12;;;;;;;5.03;1.10;;;;;;;;;;5038581;28;20029;-83
2023/08/21 08:21:38;;;;;;;5.47;1.23;;;;;;;;;;5049279;28;20030;-84
2023/08/21 08:24:03;;;;;;;2.92;1.30;;;;;;;;;;5053065;28;20057;-83
2023/08/21 08:26:29;;;;;;;5.38;1.35;;;;;;;;;;5027859;28;20031;-83
2023/08/21 08:28:54;;;;;;;3.97;1.10;;;;;;;;;;5037930;28;20081;-83
2023/08/21 08:31:20;;;;;;;6.35;0.98;;;;;;;;;;5025110;28;20070;-83
2023/08/21 08:33:46;;;;;;;4.72;1.05;;;;;;;;;;5021679;28;20438;-82
2023/08/21 08:36:11;;;;;;;5.57;1.10;;;;;;;;;;5017696;28;20044;-81
2023/08/21 08:38:37;;;;;;;4.07;1.10;;;;;;;;;;5016040;28;20050;-81
2023/08/21 08:41:09;;;;;;;3.72;1.10;;;;;;;;;;5013305;28;20038;-82
2023/08/21 08:43:39;;;;;;;6.47;1.10;;;;;;;;;;5010429;28;20025;-84
2023/08/21 08:46:06;;;;;;;4.93;1.45;;;;;;;;;;5005262;28;20030;-84
2023/08/21 08:48:31;;;;;;;3.05;0.93;;;;;;;;;;5010493;28;20083;-84
2023/08/21 08:50:57;;;;;;;4.78;1.10;;;;;;;;;;5007944;28;20038;-84
2023/08/21 08:53:24;;;;;;;4.25;1.15;;;;;;;;;;5006554;28;20587;-84
2023/08/21 08:55:49;;;;;;;5.50;1.10;;;;;;;;;;5017682;28;20112;-84
2023/08/21 08:58:15;;;;;;;4.43;1.10;;;;;;;;;;5012416;28;20124;-84
2023/08/21 09:00:40;;;;;;;5.22;1.10;;;;;;;;;;5010786;28;20042;-83
2023/08/21 09:03:06;;;;;;;6.03;1.40;;;;;;;;;;5007859;28;20033;-83
2023/08/21 09:05:34;;;;;;;6.03;1.42;;;;;;;;;;5005134;28;20059;-84
2023/08/21 09:08:08;;;;;;;4.95;1.20;;;;;;;;;;5015538;28;20025;-84
2023/08/21 09:10:36;;;;;;;5.22;1.20;;;;;;;;;;5026752;28;20201;-84
2023/08/21 09:13:08;;;;;;;4.18;1.05;;;;;;;;;;5010000;28;20026;-84
2023/08/21 09:15:36;;;;;;;7.45;1.77;;;;;;;;;;5009525;28;20106;-84
2023/08/21 09:18:02;;;;;;;6.20;1.42;;;;;;;;;;5003897;28;20525;-84
2023/08/21 09:20:27;;;;;;;7.70;1.58;;;;;;;;;;5016911;28;20022;-84
2023/08/21 09:22:55;;;;;;;8.73;1.38;;;;;;;;;;5004543;28;20049;-84
2023/08/21 09:25:20;;;;;;;9.27;2.08;;;;;;;;;;5007972;28;20037;-84
2023/08/21 09:27:45;;;;;;;5.38;1.80;;;;;;;;;;5007438;28;20029;-84
2023/08/21 09:30:16;;;;;;;7.30;1.48;;;;;;;;;;5000657;28;20030;-84
2023/08/21 09:32:55;;;;;;;6.35;1.30;;;;;;;;;;5020948;28;20053;-84
2023/08/21 09:35:21;;;;;;;7.07;1.70;;;;;;;;;;5002140;28;20036;-84
2023/08/21 09:37:47;;;;;;;4.35;1.33;;;;;;;;;;5006912;28;20029;-84
2023/08/21 09:40:13;;;;;;;6.93;2.00;;;;;;;;;;5013381;28;20025;-84
2023/08/21 09:42:41;;;;;;;6.93;2.03;;;;;;;;;;5023814;28;20500;-84
2023/08/21 09:45:07;;;;;;;4.95;2.05;;;;;;;;;;5009579;28;20085;-84
2023/08/21 09:47:33;;;;;;;4.65;1.20;;;;;;;;;;5007440;28;20061;-84
2023/08/21 09:49:59;;;;;;;5.50;1.60;;;;;;;;;;5023332;28;20363;-84
2023/08/21 09:52:26;;;;;;;4.32;1.50;;;;;;;;;;5016215;28;20030;-87
2023/08/21 09:54:56;;;;;;;5.07;1.33;;;;;;;;;;5019975;28;20026;-87
2023/08/21 09:57:22;;;;;;;8.55;1.60;;;;;;;;;;5016659;28;20022;-86
2023/08/21 09:59:52;;;;;;;3.80;1.70;;;;;;;;;;5025874;28;20093;-86
2023/08/21 10:02:17;;;;;;;3.60;1.40;;;;;;;;;;5029989;28;20014;-84
2023/08/21 10:04:45;;;;;;;5.10;1.27;;;;;;;;;;5039581;28;20092;-84
2023/08/21 10:07:18;;;;;;;3.95;1.15;;;;;;;;;;5032965;28;20027;-85
2023/08/21 10:09:50;;;;;;;7.07;1.60;;;;;;;;;;5028154;28;20045;-85
2023/08/21 10:12:22;;;;;;;5.80;1.63;;;;;;;;;;5158466;22;20041;-86
2023/08/21 10:14:51;;;;;;;7.72;2.67;;;;;;;;;;5047092;28;20341;-86
2023/08/21 10:17:27;;;;;;;3.78;1.30;;;;;;;;;;5045893;28;20092;-86
2023/08/21 10:19:55;;;;;;;6.57;1.50;;;;;;;;;;5042267;28;20029;-85
2023/08/21 10:24:59;;;;;;;5.45;1.80;;;;;;;;;;5210792;22;20029;-84
2023/08/21 10:30:12;;;;;;;3.63;0.90;;;;;;;;;;5389710;22;20044;-84
2023/08/21 10:32:44;;;;;;;3.10;1.08;;;;;;;;;;5036237;28;20017;-86
2023/08/21 10:35:16;;;;;;;3.45;0.93;;;;;;;;;;5032853;28;20442;-85
2023/08/21 10:38:20;;;;;;;4.07;0.90;;;;;;;;;;5046030;28;20375;-85
2023/08/21 10:41:08;;;;;;;4.40;1.13;;;;;;;;;;4997335;28;20030;-85
2023/08/21 10:43:39;;;;;;;3.25;0.85;;;;;;;;;;5032723;28;20038;-85
2023/08/21 10:46:04;;;;;;;3.60;0.90;;;;;;;;;;5035716;28;20058;-85
2023/08/21 10:48:30;;;;;;;4.00;1.50;;;;;;;;;;5176456;22;20029;-84
2023/08/21 10:58:41;;;;;;;6.03;1.85;;;;;;;;;;5180056;22;20032;-84
2023/08/21 11:16:36;;;;;;;2.78;0.90;;;;;;;;;;4969967;28;20495;-85
2023/08/21 11:19:07;;;;;;;3.95;1.30;;;;;;;;;;4956315;28;20030;-85
2023/08/21 11:21:33;;;;;;;2.50;0.80;;;;;;;;;;4959963;28;20038;-85
2023/08/21 11:23:58;;;;;;;1.17;0.50;;;;;;;;;;4988458;28;20330;-85
2023/08/21 11:26:25;;;;;;;4.35;0.70;;;;;;;;;;4989282;28;20082;-84
2023/08/21 11:28:50;;;;;;;1.63;0.60;;;;;;;;;;4991436;28;20034;-85
2023/08/21 11:31:16;;;;;;;1.67;0.60;;;;;;;;;;5005172;28;20244;-85
2023/08/21 11:33:49;;;;;;;3.17;0.70;;;;;;;;;;4990580;28;20011;-85
2023/08/21 11:36:15;;;;;;;4.88;1.20;;;;;;;;;;4980570;28;20043;-84
2023/08/21 11:38:40;;;;;;;3.17;1.00;;;;;;;;;;5099213;22;20059;-83
2023/08/21 11:41:06;;;;;;;3.58;1.40;;;;;;;;;;5041980;22;20034;-84
2023/08/21 11:46:08;;;;;;;3.45;1.40;;;;;;;;;;5303459;22;20033;-84
2023/08/21 11:48:39;;;;;;;2.53;1.10;;;;;;;;;;5841046;22;20028;-84
2023/08/21 11:53:42;;;;;;;3.60;1.00;;;;;;;;;;5089068;22;20038;-85
2023/08/21 11:56:15;;;;;;;3.10;1.10;;;;;;;;;;5331949;22;20033;-84
2023/08/21 12:01:18;;;;;;;4.55;1.40;;;;;;;;;;5401616;22;20025;-84
2023/08/21 12:03:43;;;;;;;4.82;1.38;;;;;;;;;;5113993;22;20022;-84
2023/08/21 12:08:44;;;;;;;4.70;1.52;;;;;;;;;;5425208;22;20045;-83
2023/08/21 12:11:09;;;;;;;4.88;1.30;;;;;;;;;;5050285;28;20029;-83
2023/08/21 12:13:35;;;;;;;3.80;1.17;;;;;;;;;;5047003;28;20025;-84
2023/08/21 12:16:00;;;;;;;3.25;1.23;;;;;;;;;;5481810;22;20018;-84
2023/08/21 12:18:26;;;;;;;2.28;1.00;;;;;;;;;;5049776;28;20072;-84
2023/08/21 12:20:52;;;;;;;3.50;1.00;;;;;;;;;;5219112;22;20030;-84
2023/08/21 12:23:18;;;;;;;2.50;0.98;;;;;;;;;;5032151;28;20045;-84
2023/08/21 12:25:44;;;;;;;2.45;0.82;;;;;;;;;;5019748;28;20041;-85
2023/08/21 12:28:10;;;;;;;1.17;0.80;;;;;;;;;;5020862;28;20466;-85
2023/08/21 12:30:36;;;;;;;2.63;1.00;;;;;;;;;;5022029;28;20252;-85
2023/08/21 12:33:01;;;;;;;3.90;0.90;;;;;;;;;;5014936;28;20397;-82
2023/08/21 12:35:27;;;;;;;2.15;0.90;;;;;;;;;;4999300;28;20034;-81
2023/08/21 12:37:57;;;;;;;2.00;0.90;;;;;;;;;;5010260;28;20062;-80
2023/08/21 12:40:23;;;;;;;4.88;0.88;;;;;;;;;;5010455;28;20036;-80
2023/08/21 12:42:48;;;;;;;3.20;0.90;;;;;;;;;;5011962;28;20445;-83
2023/08/21 12:45:14;;;;;;;4.60;1.00;;;;;;;;;;5013856;28;20117;-81
2023/08/21 12:47:39;;;;;;;2.95;1.00;;;;;;;;;;5013305;28;20389;-81
2023/08/21 12:50:06;;;;;;;5.25;1.17;;;;;;;;;;5013150;28;20096;-81
2023/08/21 12:52:31;;;;;;;2.75;1.15;;;;;;;;;;4996142;28;20137;-82
2023/08/21 12:54:57;;;;;;;3.38;1.20;;;;;;;;;;5014514;28;20116;-82
2023/08/21 12:57:22;;;;;;;4.05;1.70;;;;;;;;;;5017373;28;20037;-82
2023/08/21 12:59:47;;;;;;;3.03;1.10;;;;;;;;;;5016449;28;20037;-82
2023/08/21 13:02:13;;;;;;;2.75;1.10;;;;;;;;;;5011720;28;20496;-82
2023/08/21 13:04:38;;;;;;;2.88;1.30;;;;;;;;;;5015588;28;20080;-81
2023/08/21 13:07:04;;;;;;;3.03;0.90;;;;;;;;;;5016823;28;20060;-81
2023/08/21 13:09:30;;;;;;;4.72;1.60;;;;;;;;;;5020375;28;20489;-81
2023/08/21 13:11:55;;;;;;;2.92;1.00;;;;;;;;;;5017339;28;20041;-83
2023/08/21 13:14:20;;;;;;;3.20;1.00;;;;;;;;;;5014182;28;20029;-81
2023/08/21 13:16:46;;;;;;;3.15;0.70;;;;;;;;;;5017885;28;20771;-82
2023/08/21 13:19:11;;;;;;;3.90;1.00;;;;;;;;;;5016227;28;20033;-82
2023/08/21 13:21:37;;;;;;;5.43;0.80;;;;;;;;;;5008821;28;20377;-82
2023/08/21 13:24:11;;;;;;;1.38;0.57;;;;;;;;;;5013839;28;20037;-82
2023/08/21 13:26:36;;;;;;;1.58;0.60;;;;;;;;;;5013516;28;20033;-81
2023/08/21 13:29:02;;;;;;;2.13;0.65;;;;;;;;;;5015748;28;20044;-82
2023/08/21 13:31:28;;;;;;;2.17;0.98;;;;;;;;;;5013606;28;20542;-80
2023/08/21 13:33:54;;;;;;;2.17;0.82;;;;;;;;;;5015241;28;20480;-80
2023/08/21 13:36:20;;;;;;;3.72;1.15;;;;;;;;;;5018960;28;20022;-82
2023/08/21 13:38:46;;;;;;;1.73;0.57;;;;;;;;;;5010653;28;20025;-81
2023/08/21 13:41:11;;;;;;;1.67;0.47;;;;;;;;;;5014537;28;20034;-80
2023/08/21 13:43:37;;;;;;;1.70;0.43;;;;;;;;;;5013815;28;20496;-83
2023/08/21 13:46:06;;;;;;;1.25;0.30;;;;;;;;;;5014405;28;20048;-83
2023/08/21 13:48:32;;;;;;;3.13;0.70;;;;;;;;;;5009075;28;20137;-84
2023/08/21 13:51:00;;;;;;;3.22;0.50;;;;;;;;;;5008725;28;20136;-84
2023/08/21 13:53:25;;;;;;;2.95;0.60;;;;;;;;;;5027879;28;20272;-84
2023/08/21 13:55:51;;;;;;;1.13;0.40;;;;;;;;;;5008621;28;20030;-83
2023/08/21 13:58:17;;;;;;;1.98;0.50;;;;;;;;;;5014675;28;20470;-84
2023/08/21 14:00:42;;;;;;;2.58;0.50;;;;;;;;;;5004775;28;20044;-84
2023/08/21 14:03:08;;;;;;;1.60;0.50;;;;;;;;;;5012119;28;20032;-84
2023/08/21 14:05:33;;;;;;;2.00;0.70;;;;;;;;;;5010303;28;20425;-84
2023/08/21 14:08:00;;;;;;;1.98;0.52;;;;;;;;;;5009459;28;20022;-84
2023/08/21 14:10:25;;;;;;;1.17;0.40;;;;;;;;;;5007049;28;20077;-82
2023/08/21 14:12:51;;;;;;;1.83;0.50;;;;;;;;;;5011970;28;20485;-84
2023/08/21 14:15:18;;;;;;;1.00;0.40;;;;;;;;;;5017509;28;20033;-82
2023/08/21 14:17:44;;;;;;;1.77;0.50;;;;;;;;;;5015150;28;20115;-83
2023/08/21 14:20:10;;;;;;;1.70;0.50;;;;;;;;;;5011565;28;20060;-81
2023/08/21 14:22:42;;;;;;;2.20;0.57;;;;;;;;;;5009321;28;20029;-82
2023/08/21 14:25:15;;;;;;;1.58;0.43;;;;;;;;;;5008477;28;20141;-84
2023/08/21 14:28:40;;;;;;;4.00;0.75;;;;;;;;;;4988059;28;20034;-84
2023/08/21 14:31:59;;;;;;;;;;;;;;;;;;;;;
2023/08/21 14:38:26;;;;;;;2.15;0.50;;;;;;;;;;4884120;29;20112;-84
2023/08/21 14:41:34;;;;;;;0.75;0.43;;;;;;;;;;4856484;29;20044;-84
2023/08/21 14:48:02;;;;;;;;;;;;;;;;;;;;;
2023/08/21 14:51:02;;;;;;;;;;;;;;;;;;;;;
2023/08/21 14:53:38;;;;;;;1.38;0.50;;;;;;;;;;4886413;29;20047;-81
2023/08/21 14:56:12;;;;;;;1.35;0.60;;;;;;;;;;4954894;28;20521;-83
2023/08/21 14:58:37;;;;;;;4.20;0.50;;;;;;;;;;4987584;28;20505;-81
2023/08/21 15:04:41;;;;;;;;;;;;;;;;;;;;;
2023/08/21 15:07:14;;;;;;;1.95;0.40;;;;;;;;;;5010340;28;20034;-82
2023/08/21 15:09:48;;;;;;;1.88;0.50;;;;;;;;;;5019830;28;20109;-82
2023/08/21 15:12:28;;;;;;;1.70;0.40;;;;;;;;;;5014256;28;20053;-82
2023/08/21 15:15:03;;;;;;;1.38;0.45;;;;;;;;;;5009144;28;20033;-82
2023/08/21 15:17:29;;;;;;;2.15;0.30;;;;;;;;;;5020229;28;20042;-81
2023/08/21 15:19:55;;;;;;;1.67;0.30;;;;;;;;;;5014491;28;20500;-83
2023/08/21 15:22:21;;;;;;;1.27;0.45;;;;;;;;;;5018929;28;20036;-81
2023/08/21 15:25:11;;;;;;;1.08;0.40;;;;;;;;;;5013026;28;20030;-82
2023/08/21 15:27:48;;;;;;;3.67;0.80;;;;;;;;;;5020262;28;20029;-82
2023/08/21 15:30:42;;;;;;;1.13;0.52;;;;;;;;;;5014430;28;20026;-82
2023/08/21 15:33:20;;;;;;;1.05;0.35;;;;;;;;;;5160227;22;20546;-82
2023/08/21 15:36:13;;;;;;;1.25;0.50;;;;;;;;;;5024758;28;20045;-82
2023/08/21 15:38:57;;;;;;;1.13;0.45;;;;;;;;;;5036516;28;20024;-81